< Typhoon 198923 1989 Season Typhoon 198925 >
Typhoon 198924 (BRIAN)
General InformationTrack Information on Google MapsDetailed Wind InformationList of All Images || Disaster Info.ResourceGoogle EarthGE AnimationAtom FeedGeoJSON
Detalied Best Track (Time Zone = UTC)
Year Month Day Hour Lat. Long. Pressure (hPa) Wind (kt) Class Image Chart
1989 9 28 18 17.0 119.0 1008 0 2 Image Chart
1989 9 29 00 17.6 118.0 1008 0 2 Image Chart
1989 9 29 06 18.5 117.5 1006 0 2 Image Chart
1989 9 29 12 19.1 117.1 1006 0 2 Image Chart
1989 9 29 18 19.5 116.8 1006 0 2 Image Chart
1989 9 30 00 19.8 116.5 1006 0 2 Image Chart
1989 9 30 06 20.0 116.0 1004 0 2 Image Chart
1989 9 30 12 20.2 115.5 1000 35 3 Image Chart
1989 9 30 18 20.0 115.0 998 35 3 Image Chart
1989 10 1 00 19.8 114.6 998 35 3 Image Chart
1989 10 1 06 19.5 114.4 992 40 3 Image Chart
1989 10 1 12 19.0 113.7 990 45 3 Image Chart
1989 10 1 18 18.7 112.9 985 50 4 Image Chart
1989 10 2 00 18.5 112.3 980 55 4 Image Chart
1989 10 2 06 18.3 111.8 975 60 4 Image Chart
1989 10 2 12 18.3 110.7 970 65 5 Image Chart
1989 10 2 18 18.3 109.2 975 60 4 Image Chart
1989 10 3 00 18.5 108.0 980 55 4 Image Chart
1989 10 3 06 18.8 106.5 985 50 4 Image Chart
1989 10 3 12 19.2 104.3 990 45 3 Image Chart
1989 10 3 18 19.7 102.7 996 0 2 Image Chart
1989 10 4 00 20.0 101.0 1000 0 2 Image Chart
Japan Meteorological Agency Best Track Data | Correction Date : 1992-10-21
< Typhoon 198923 1989 Season Typhoon 198925 >

Help